sensor_id;sensor_type;location;lat;lon;timestamp;P1;durP1;ratioP1;P2;durP2;ratioP2
35239;SDS011;21376;50.954;4.716;2024-02-21T00:00:21;28.58;;;10.30;;
35239;SDS011;21376;50.954;4.716;2024-02-21T00:02:47;26.08;;;9.88;;
35239;SDS011;21376;50.954;4.716;2024-02-21T00:07:45;25.42;;;9.35;;
35239;SDS011;21376;50.954;4.716;2024-02-21T00:12:41;25.52;;;9.15;;
35239;SDS011;21376;50.954;4.716;2024-02-21T00:15:13;33.83;;;10.10;;
35239;SDS011;21376;50.954;4.716;2024-02-21T00:17:43;30.63;;;10.38;;
35239;SDS011;21376;50.954;4.716;2024-02-21T00:30:39;31.25;;;10.57;;
35239;SDS011;21376;50.954;4.716;2024-02-21T00:43:14;25.77;;;8.50;;
35239;SDS011;21376;50.954;4.716;2024-02-21T00:45:45;30.25;;;9.05;;
35239;SDS011;21376;50.954;4.716;2024-02-21T00:50:42;27.48;;;8.85;;
35239;SDS011;21376;50.954;4.716;2024-02-21T00:59:38;29.42;;;8.93;;
35239;SDS011;21376;50.954;4.716;2024-02-21T01:02:07;21.73;;;8.82;;
35239;SDS011;21376;50.954;4.716;2024-02-21T01:04:37;24.83;;;8.35;;
35239;SDS011;21376;50.954;4.716;2024-02-21T01:07:05;21.65;;;8.65;;
35239;SDS011;21376;50.954;4.716;2024-02-21T01:09:34;29.95;;;9.32;;
35239;SDS011;21376;50.954;4.716;2024-02-21T01:12:05;26.42;;;9.48;;
35239;SDS011;21376;50.954;4.716;2024-02-21T01:17:03;26.40;;;11.35;;
35239;SDS011;21376;50.954;4.716;2024-02-21T01:19:34;33.10;;;11.70;;
35239;SDS011;21376;50.954;4.716;2024-02-21T01:22:03;28.35;;;11.80;;
35239;SDS011;21376;50.954;4.716;2024-02-21T01:24:29;30.40;;;11.45;;
35239;SDS011;21376;50.954;4.716;2024-02-21T01:26:58;30.35;;;12.65;;
35239;SDS011;21376;50.954;4.716;2024-02-21T01:29:24;33.03;;;12.75;;
35239;SDS011;21376;50.954;4.716;2024-02-21T01:31:52;29.13;;;13.63;;
35239;SDS011;21376;50.954;4.716;2024-02-21T01:36:47;41.05;;;15.32;;
35239;SDS011;21376;50.954;4.716;2024-02-21T01:39:22;33.95;;;15.07;;
35239;SDS011;21376;50.954;4.716;2024-02-21T01:42:04;36.75;;;14.63;;
35239;SDS011;21376;50.954;4.716;2024-02-21T01:47:17;37.40;;;13.85;;
35239;SDS011;21376;50.954;4.716;2024-02-21T01:49:55;35.53;;;15.15;;
35239;SDS011;21376;50.954;4.716;2024-02-21T01:52:21;37.20;;;13.80;;
35239;SDS011;21376;50.954;4.716;2024-02-21T01:54:47;27.05;;;13.27;;
35239;SDS011;21376;50.954;4.716;2024-02-21T01:57:13;34.75;;;13.80;;
35239;SDS011;21376;50.954;4.716;2024-02-21T01:59:40;35.22;;;13.80;;
35239;SDS011;21376;50.954;4.716;2024-02-21T02:02:07;37.72;;;13.13;;
35239;SDS011;21376;50.954;4.716;2024-02-21T02:04:34;36.92;;;14.48;;
35239;SDS011;21376;50.954;4.716;2024-02-21T02:07:06;44.17;;;13.98;;
35239;SDS011;21376;50.954;4.716;2024-02-21T02:09:45;39.17;;;15.77;;
35239;SDS011;21376;50.954;4.716;2024-02-21T02:14:42;46.80;;;16.30;;
35239;SDS011;21376;50.954;4.716;2024-02-21T02:17:11;37.35;;;14.70;;
35239;SDS011;21376;50.954;4.716;2024-02-21T02:22:09;28.75;;;12.18;;
35239;SDS011;21376;50.954;4.716;2024-02-21T02:24:44;35.03;;;12.88;;
35239;SDS011;21376;50.954;4.716;2024-02-21T02:27:10;37.42;;;13.98;;
35239;SDS011;21376;50.954;4.716;2024-02-21T02:29:36;33.22;;;13.82;;
35239;SDS011;21376;50.954;4.716;2024-02-21T02:32:05;35.67;;;13.77;;
35239;SDS011;21376;50.954;4.716;2024-02-21T02:34:34;26.27;;;12.85;;
35239;SDS011;21376;50.954;4.716;2024-02-21T02:37:01;29.65;;;13.90;;
35239;SDS011;21376;50.954;4.716;2024-02-21T02:39:33;34.42;;;13.35;;
35239;SDS011;21376;50.954;4.716;2024-02-21T02:47:01;35.17;;;13.35;;
35239;SDS011;21376;50.954;4.716;2024-02-21T02:51:58;31.20;;;12.75;;
35239;SDS011;21376;50.954;4.716;2024-02-21T02:54:26;31.90;;;13.32;;
35239;SDS011;21376;50.954;4.716;2024-02-21T02:59:21;29.25;;;11.57;;
35239;SDS011;21376;50.954;4.716;2024-02-21T03:04:32;25.60;;;11.70;;
35239;SDS011;21376;50.954;4.716;2024-02-21T03:07:01;31.35;;;12.35;;
35239;SDS011;21376;50.954;4.716;2024-02-21T03:09:30;33.42;;;12.50;;
35239;SDS011;21376;50.954;4.716;2024-02-21T03:14:31;32.90;;;13.80;;
35239;SDS011;21376;50.954;4.716;2024-02-21T03:17:03;36.03;;;12.18;;
35239;SDS011;21376;50.954;4.716;2024-02-21T03:22:02;30.30;;;12.68;;
35239;SDS011;21376;50.954;4.716;2024-02-21T03:32:09;24.40;;;12.40;;
35239;SDS011;21376;50.954;4.716;2024-02-21T03:34:41;32.97;;;13.15;;
35239;SDS011;21376;50.954;4.716;2024-02-21T03:37:10;32.70;;;12.65;;
35239;SDS011;21376;50.954;4.716;2024-02-21T03:44:44;33.10;;;12.27;;
35239;SDS011;21376;50.954;4.716;2024-02-21T03:49:42;27.80;;;11.60;;
35239;SDS011;21376;50.954;4.716;2024-02-21T03:52:09;27.38;;;12.65;;
35239;SDS011;21376;50.954;4.716;2024-02-21T03:54:38;32.65;;;13.20;;
35239;SDS011;21376;50.954;4.716;2024-02-21T03:57:07;30.83;;;12.60;;
35239;SDS011;21376;50.954;4.716;2024-02-21T03:59:36;23.73;;;13.00;;
35239;SDS011;21376;50.954;4.716;2024-02-21T04:02:08;29.67;;;13.85;;
35239;SDS011;21376;50.954;4.716;2024-02-21T04:04:34;31.02;;;12.98;;
35239;SDS011;21376;50.954;4.716;2024-02-21T04:07:04;33.25;;;13.20;;
35239;SDS011;21376;50.954;4.716;2024-02-21T04:15:09;31.92;;;13.88;;
35239;SDS011;21376;50.954;4.716;2024-02-21T04:22:40;33.58;;;13.43;;
35239;SDS011;21376;50.954;4.716;2024-02-21T04:25:12;32.65;;;14.02;;
35239;SDS011;21376;50.954;4.716;2024-02-21T04:27:41;27.23;;;12.73;;
35239;SDS011;21376;50.954;4.716;2024-02-21T04:30:09;35.42;;;13.95;;
35239;SDS011;21376;50.954;4.716;2024-02-21T04:32:38;31.35;;;12.98;;
35239;SDS011;21376;50.954;4.716;2024-02-21T04:35:05;33.63;;;13.35;;
35239;SDS011;21376;50.954;4.716;2024-02-21T04:49:15;32.25;;;13.05;;
35239;SDS011;21376;50.954;4.716;2024-02-21T04:54:14;30.63;;;12.40;;
35239;SDS011;21376;50.954;4.716;2024-02-21T04:59:16;27.75;;;11.98;;
35239;SDS011;21376;50.954;4.716;2024-02-21T05:07:21;38.15;;;13.63;;
35239;SDS011;21376;50.954;4.716;2024-02-21T05:09:47;26.02;;;12.82;;
35239;SDS011;21376;50.954;4.716;2024-02-21T05:14:43;25.65;;;13.05;;
35239;SDS011;21376;50.954;4.716;2024-02-21T05:17:13;29.70;;;13.73;;
35239;SDS011;21376;50.954;4.716;2024-02-21T05:19:41;31.40;;;14.00;;
35239;SDS011;21376;50.954;4.716;2024-02-21T05:22:13;27.85;;;12.88;;
35239;SDS011;21376;50.954;4.716;2024-02-21T05:24:42;21.30;;;11.13;;
35239;SDS011;21376;50.954;4.716;2024-02-21T05:29:40;29.35;;;12.43;;
35239;SDS011;21376;50.954;4.716;2024-02-21T05:32:06;20.10;;;12.15;;
35239;SDS011;21376;50.954;4.716;2024-02-21T05:34:34;28.73;;;12.65;;
35239;SDS011;21376;50.954;4.716;2024-02-21T05:42:18;26.23;;;11.73;;
35239;SDS011;21376;50.954;4.716;2024-02-21T05:44:47;24.08;;;10.77;;
35239;SDS011;21376;50.954;4.716;2024-02-21T05:49:55;33.80;;;11.25;;
35239;SDS011;21376;50.954;4.716;2024-02-21T05:54:53;16.73;;;6.22;;
35239;SDS011;21376;50.954;4.716;2024-02-21T05:59:50;28.17;;;11.20;;
35239;SDS011;21376;50.954;4.716;2024-02-21T06:02:22;17.60;;;9.52;;
35239;SDS011;21376;50.954;4.716;2024-02-21T06:04:48;21.13;;;10.18;;
35239;SDS011;21376;50.954;4.716;2024-02-21T06:07:16;20.05;;;10.55;;
35239;SDS011;21376;50.954;4.716;2024-02-21T06:09:45;19.23;;;9.68;;
35239;SDS011;21376;50.954;4.716;2024-02-21T06:12:12;27.25;;;10.02;;
35239;SDS011;21376;50.954;4.716;2024-02-21T06:17:33;18.30;;;9.00;;
35239;SDS011;21376;50.954;4.716;2024-02-21T06:22:32;16.15;;;8.57;;
35239;SDS011;21376;50.954;4.716;2024-02-21T06:27:55;19.52;;;8.32;;
35239;SDS011;21376;50.954;4.716;2024-02-21T06:30:25;17.00;;;8.05;;
35239;SDS011;21376;50.954;4.716;2024-02-21T06:38:22;11.73;;;6.72;;
35239;SDS011;21376;50.954;4.716;2024-02-21T06:40:48;18.80;;;7.47;;
35239;SDS011;21376;50.954;4.716;2024-02-21T06:43:20;14.85;;;7.43;;
35239;SDS011;21376;50.954;4.716;2024-02-21T06:45:52;17.00;;;7.22;;
35239;SDS011;21376;50.954;4.716;2024-02-21T06:48:21;14.85;;;7.43;;
35239;SDS011;21376;50.954;4.716;2024-02-21T06:50:50;13.73;;;7.30;;
35239;SDS011;21376;50.954;4.716;2024-02-21T06:55:48;19.10;;;7.20;;
35239;SDS011;21376;50.954;4.716;2024-02-21T07:00:43;15.35;;;6.05;;
35239;SDS011;21376;50.954;4.716;2024-02-21T07:03:11;13.55;;;6.97;;
35239;SDS011;21376;50.954;4.716;2024-02-21T07:11:42;16.10;;;8.20;;
35239;SDS011;21376;50.954;4.716;2024-02-21T07:14:14;13.13;;;7.60;;
35239;SDS011;21376;50.954;4.716;2024-02-21T07:16:42;21.50;;;8.13;;
35239;SDS011;21376;50.954;4.716;2024-02-21T07:19:10;11.70;;;7.78;;
35239;SDS011;21376;50.954;4.716;2024-02-21T07:24:10;16.58;;;9.25;;
35239;SDS011;21376;50.954;4.716;2024-02-21T07:26:42;16.42;;;7.82;;
35239;SDS011;21376;50.954;4.716;2024-02-21T07:29:11;15.88;;;9.05;;
35239;SDS011;21376;50.954;4.716;2024-02-21T07:31:51;17.80;;;9.80;;
35239;SDS011;21376;50.954;4.716;2024-02-21T07:34:18;20.48;;;10.70;;
35239;SDS011;21376;50.954;4.716;2024-02-21T07:36:45;21.13;;;12.13;;
35239;SDS011;21376;50.954;4.716;2024-02-21T07:41:40;25.60;;;12.80;;
35239;SDS011;21376;50.954;4.716;2024-02-21T07:44:10;20.77;;;12.95;;
35239;SDS011;21376;50.954;4.716;2024-02-21T07:46:38;25.15;;;14.13;;
35239;SDS011;21376;50.954;4.716;2024-02-21T07:49:07;25.88;;;14.50;;
35239;SDS011;21376;50.954;4.716;2024-02-21T07:51:36;23.40;;;12.63;;
35239;SDS011;21376;50.954;4.716;2024-02-21T07:54:02;28.60;;;13.85;;
35239;SDS011;21376;50.954;4.716;2024-02-21T07:56:32;27.40;;;14.50;;
35239;SDS011;21376;50.954;4.716;2024-02-21T08:01:31;24.95;;;13.95;;
35239;SDS011;21376;50.954;4.716;2024-02-21T08:03:57;21.80;;;12.52;;
35239;SDS011;21376;50.954;4.716;2024-02-21T08:06:27;23.02;;;10.82;;
35239;SDS011;21376;50.954;4.716;2024-02-21T08:08:54;27.65;;;13.70;;
35239;SDS011;21376;50.954;4.716;2024-02-21T08:11:21;24.15;;;13.25;;
35239;SDS011;21376;50.954;4.716;2024-02-21T08:13:46;25.35;;;13.75;;
35239;SDS011;21376;50.954;4.716;2024-02-21T08:16:13;29.92;;;13.73;;
35239;SDS011;21376;50.954;4.716;2024-02-21T08:18:39;18.98;;;10.18;;
35239;SDS011;21376;50.954;4.716;2024-02-21T08:21:10;20.33;;;10.80;;
35239;SDS011;21376;50.954;4.716;2024-02-21T08:23:38;20.42;;;10.98;;
35239;SDS011;21376;50.954;4.716;2024-02-21T08:29:31;24.02;;;11.20;;
35239;SDS011;21376;50.954;4.716;2024-02-21T08:31:58;21.63;;;10.88;;
35239;SDS011;21376;50.954;4.716;2024-02-21T08:34:25;28.42;;;12.15;;
35239;SDS011;21376;50.954;4.716;2024-02-21T08:36:51;19.63;;;11.35;;
35239;SDS011;21376;50.954;4.716;2024-02-21T08:39:17;21.98;;;12.15;;
35239;SDS011;21376;50.954;4.716;2024-02-21T08:41:43;27.20;;;12.23;;
35239;SDS011;21376;50.954;4.716;2024-02-21T08:44:14;22.38;;;11.82;;
35239;SDS011;21376;50.954;4.716;2024-02-21T08:46:44;22.23;;;11.00;;
35239;SDS011;21376;50.954;4.716;2024-02-21T08:54:14;25.00;;;9.85;;
35239;SDS011;21376;50.954;4.716;2024-02-21T08:56:43;18.15;;;8.95;;
35239;SDS011;21376;50.954;4.716;2024-02-21T08:59:09;15.68;;;8.60;;
35239;SDS011;21376;50.954;4.716;2024-02-21T09:01:38;19.83;;;8.88;;
35239;SDS011;21376;50.954;4.716;2024-02-21T09:04:04;15.90;;;7.85;;
35239;SDS011;21376;50.954;4.716;2024-02-21T09:06:33;20.48;;;7.65;;
35239;SDS011;21376;50.954;4.716;2024-02-21T09:09:05;17.30;;;6.75;;
35239;SDS011;21376;50.954;4.716;2024-02-21T09:11:33;14.57;;;7.25;;
35239;SDS011;21376;50.954;4.716;2024-02-21T09:14:01;13.48;;;7.65;;
35239;SDS011;21376;50.954;4.716;2024-02-21T09:19:00;13.23;;;6.68;;
35239;SDS011;21376;50.954;4.716;2024-02-21T09:23:57;12.90;;;6.72;;
35239;SDS011;21376;50.954;4.716;2024-02-21T09:28:55;14.00;;;6.00;;
35239;SDS011;21376;50.954;4.716;2024-02-21T09:31:24;13.18;;;7.35;;
35239;SDS011;21376;50.954;4.716;2024-02-21T09:33:51;17.33;;;6.95;;
35239;SDS011;21376;50.954;4.716;2024-02-21T09:36:20;11.70;;;6.22;;
35239;SDS011;21376;50.954;4.716;2024-02-21T09:46:41;10.45;;;5.60;;
35239;SDS011;21376;50.954;4.716;2024-02-21T09:49:47;15.32;;;6.38;;
35239;SDS011;21376;50.954;4.716;2024-02-21T09:54:45;6.35;;;4.80;;
35239;SDS011;21376;50.954;4.716;2024-02-21T09:57:17;13.02;;;5.75;;
35239;SDS011;21376;50.954;4.716;2024-02-21T09:59:45;12.73;;;5.72;;
35239;SDS011;21376;50.954;4.716;2024-02-21T10:02:14;13.23;;;5.47;;
35239;SDS011;21376;50.954;4.716;2024-02-21T10:07:39;15.13;;;5.97;;
35239;SDS011;21376;50.954;4.716;2024-02-21T10:13:08;15.32;;;5.63;;
35239;SDS011;21376;50.954;4.716;2024-02-21T10:18:08;13.23;;;5.40;;
35239;SDS011;21376;50.954;4.716;2024-02-21T10:25:38;9.80;;;5.05;;
35239;SDS011;21376;50.954;4.716;2024-02-21T10:31:46;10.48;;;4.70;;
35239;SDS011;21376;50.954;4.716;2024-02-21T10:34:16;13.93;;;4.88;;
35239;SDS011;21376;50.954;4.716;2024-02-21T10:39:15;15.50;;;5.32;;
35239;SDS011;21376;50.954;4.716;2024-02-21T10:47:21;12.52;;;4.63;;
35239;SDS011;21376;50.954;4.716;2024-02-21T10:49:56;16.65;;;5.75;;
35239;SDS011;21376;50.954;4.716;2024-02-21T10:54:55;13.20;;;5.03;;
35239;SDS011;21376;50.954;4.716;2024-02-21T10:57:27;13.25;;;5.25;;
35239;SDS011;21376;50.954;4.716;2024-02-21T11:05:26;13.13;;;5.72;;
35239;SDS011;21376;50.954;4.716;2024-02-21T11:07:56;12.20;;;4.10;;
35239;SDS011;21376;50.954;4.716;2024-02-21T11:10:29;13.30;;;4.93;;
35239;SDS011;21376;50.954;4.716;2024-02-21T11:13:11;14.77;;;4.85;;
35239;SDS011;21376;50.954;4.716;2024-02-21T11:15:42;14.65;;;5.15;;
35239;SDS011;21376;50.954;4.716;2024-02-21T11:20:39;14.10;;;4.28;;
35239;SDS011;21376;50.954;4.716;2024-02-21T11:23:12;11.38;;;4.00;;
35239;SDS011;21376;50.954;4.716;2024-02-21T11:26:03;14.48;;;5.28;;
35239;SDS011;21376;50.954;4.716;2024-02-21T11:34:34;26.70;;;7.40;;
35239;SDS011;21376;50.954;4.716;2024-02-21T11:37:03;12.23;;;3.92;;
35239;SDS011;21376;50.954;4.716;2024-02-21T11:39:42;22.30;;;7.45;;
35239;SDS011;21376;50.954;4.716;2024-02-21T11:42:11;23.08;;;6.72;;
35239;SDS011;21376;50.954;4.716;2024-02-21T11:44:40;10.90;;;4.65;;
35239;SDS011;21376;50.954;4.716;2024-02-21T11:50:01;10.55;;;4.63;;
35239;SDS011;21376;50.954;4.716;2024-02-21T12:01:46;13.50;;;4.20;;
35239;SDS011;21376;50.954;4.716;2024-02-21T12:06:47;10.55;;;4.30;;
35239;SDS011;21376;50.954;4.716;2024-02-21T12:09:17;13.90;;;4.10;;
35239;SDS011;21376;50.954;4.716;2024-02-21T12:11:44;10.55;;;3.63;;
35239;SDS011;21376;50.954;4.716;2024-02-21T12:17:22;10.00;;;3.40;;
35239;SDS011;21376;50.954;4.716;2024-02-21T12:22:24;12.63;;;3.90;;
35239;SDS011;21376;50.954;4.716;2024-02-21T12:24:53;10.13;;;3.90;;
35239;SDS011;21376;50.954;4.716;2024-02-21T12:27:23;8.88;;;3.38;;
35239;SDS011;21376;50.954;4.716;2024-02-21T12:29:52;10.05;;;3.70;;
35239;SDS011;21376;50.954;4.716;2024-02-21T12:32:20;11.82;;;5.07;;
35239;SDS011;21376;50.954;4.716;2024-02-21T12:34:49;14.73;;;4.07;;
35239;SDS011;21376;50.954;4.716;2024-02-21T12:39:53;6.07;;;3.75;;
35239;SDS011;21376;50.954;4.716;2024-02-21T12:42:21;13.13;;;3.67;;
35239;SDS011;21376;50.954;4.716;2024-02-21T12:44:54;7.45;;;3.20;;
35239;SDS011;21376;50.954;4.716;2024-02-21T12:47:23;8.10;;;3.58;;
35239;SDS011;21376;50.954;4.716;2024-02-21T12:49:55;10.38;;;3.80;;
35239;SDS011;21376;50.954;4.716;2024-02-21T12:52:24;14.88;;;4.40;;
35239;SDS011;21376;50.954;4.716;2024-02-21T12:54:53;9.00;;;4.10;;
35239;SDS011;21376;50.954;4.716;2024-02-21T12:57:28;9.45;;;3.88;;
35239;SDS011;21376;50.954;4.716;2024-02-21T13:05:32;10.13;;;3.70;;
35239;SDS011;21376;50.954;4.716;2024-02-21T13:07:59;6.97;;;4.15;;
35239;SDS011;21376;50.954;4.716;2024-02-21T13:13:04;9.77;;;3.88;;
35239;SDS011;21376;50.954;4.716;2024-02-21T13:58:10;10.10;;;5.13;;
35239;SDS011;21376;50.954;4.716;2024-02-21T14:05:41;7.75;;;4.38;;
35239;SDS011;21376;50.954;4.716;2024-02-21T14:08:10;12.98;;;5.47;;
35239;SDS011;21376;50.954;4.716;2024-02-21T14:10:38;8.77;;;4.68;;
35239;SDS011;21376;50.954;4.716;2024-02-21T14:15:36;13.15;;;6.28;;
35239;SDS011;21376;50.954;4.716;2024-02-21T14:18:10;9.48;;;4.85;;
35239;SDS011;21376;50.954;4.716;2024-02-21T14:29:31;14.68;;;5.90;;
35239;SDS011;21376;50.954;4.716;2024-02-21T14:32:00;14.60;;;5.68;;
35239;SDS011;21376;50.954;4.716;2024-02-21T14:34:26;12.13;;;5.45;;
35239;SDS011;21376;50.954;4.716;2024-02-21T14:36:52;10.30;;;5.35;;
35239;SDS011;21376;50.954;4.716;2024-02-21T14:39:18;13.95;;;6.20;;
35239;SDS011;21376;50.954;4.716;2024-02-21T14:41:47;10.93;;;5.72;;
35239;SDS011;21376;50.954;4.716;2024-02-21T14:44:13;15.65;;;6.75;;
35239;SDS011;21376;50.954;4.716;2024-02-21T14:46:42;12.07;;;6.30;;
35239;SDS011;21376;50.954;4.716;2024-02-21T14:49:11;14.77;;;6.30;;
35239;SDS011;21376;50.954;4.716;2024-02-21T14:51:53;9.50;;;3.95;;
35239;SDS011;21376;50.954;4.716;2024-02-21T14:54:23;9.68;;;4.80;;
35239;SDS011;21376;50.954;4.716;2024-02-21T14:56:55;14.98;;;6.45;;
35239;SDS011;21376;50.954;4.716;2024-02-21T14:59:21;12.77;;;6.32;;
35239;SDS011;21376;50.954;4.716;2024-02-21T15:06:47;10.50;;;4.57;;
35239;SDS011;21376;50.954;4.716;2024-02-21T15:09:17;11.95;;;5.97;;
35239;SDS011;21376;50.954;4.716;2024-02-21T15:11:59;14.23;;;6.38;;
35239;SDS011;21376;50.954;4.716;2024-02-21T15:14:25;13.70;;;5.05;;
35239;SDS011;21376;50.954;4.716;2024-02-21T15:17:10;17.27;;;7.35;;
35239;SDS011;21376;50.954;4.716;2024-02-21T15:19:40;13.90;;;5.22;;
35239;SDS011;21376;50.954;4.716;2024-02-21T15:22:15;10.38;;;6.22;;
35239;SDS011;21376;50.954;4.716;2024-02-21T15:27:16;19.25;;;7.72;;
35239;SDS011;21376;50.954;4.716;2024-02-21T15:29:42;13.65;;;6.95;;
35239;SDS011;21376;50.954;4.716;2024-02-21T15:32:12;13.80;;;5.53;;
35239;SDS011;21376;50.954;4.716;2024-02-21T15:34:38;12.10;;;6.90;;
35239;SDS011;21376;50.954;4.716;2024-02-21T15:55:39;10.95;;;5.90;;
35239;SDS011;21376;50.954;4.716;2024-02-21T15:58:11;16.48;;;6.70;;
35239;SDS011;21376;50.954;4.716;2024-02-21T16:00:41;11.60;;;6.83;;
35239;SDS011;21376;50.954;4.716;2024-02-21T16:03:10;12.50;;;6.88;;
35239;SDS011;21376;50.954;4.716;2024-02-21T16:08:12;19.73;;;8.23;;
35239;SDS011;21376;50.954;4.716;2024-02-21T16:10:41;17.65;;;7.55;;
35239;SDS011;21376;50.954;4.716;2024-02-21T16:13:10;16.10;;;8.75;;
35239;SDS011;21376;50.954;4.716;2024-02-21T16:15:35;16.10;;;8.10;;
35239;SDS011;21376;50.954;4.716;2024-02-21T16:18:09;24.30;;;9.70;;
35239;SDS011;21376;50.954;4.716;2024-02-21T16:20:38;10.27;;;6.93;;
35239;SDS011;21376;50.954;4.716;2024-02-21T16:25:34;22.30;;;8.77;;
35239;SDS011;21376;50.954;4.716;2024-02-21T16:28:01;15.90;;;6.95;;
35239;SDS011;21376;50.954;4.716;2024-02-21T16:30:31;15.15;;;7.75;;
35239;SDS011;21376;50.954;4.716;2024-02-21T16:33:03;13.02;;;7.43;;
35239;SDS011;21376;50.954;4.716;2024-02-21T16:35:30;16.05;;;7.00;;
35239;SDS011;21376;50.954;4.716;2024-02-21T16:40:30;19.95;;;8.63;;
35239;SDS011;21376;50.954;4.716;2024-02-21T16:46:03;14.82;;;7.78;;
35239;SDS011;21376;50.954;4.716;2024-02-21T16:48:29;21.17;;;8.02;;
35239;SDS011;21376;50.954;4.716;2024-02-21T16:59:10;16.42;;;8.43;;
35239;SDS011;21376;50.954;4.716;2024-02-21T17:04:09;16.40;;;8.73;;
35239;SDS011;21376;50.954;4.716;2024-02-21T17:06:34;14.38;;;9.15;;
35239;SDS011;21376;50.954;4.716;2024-02-21T17:09:02;17.70;;;8.32;;
35239;SDS011;21376;50.954;4.716;2024-02-21T17:18:28;21.08;;;9.38;;
35239;SDS011;21376;50.954;4.716;2024-02-21T17:20:57;12.65;;;7.45;;
35239;SDS011;21376;50.954;4.716;2024-02-21T17:23:26;14.65;;;7.82;;
35239;SDS011;21376;50.954;4.716;2024-02-21T17:25:55;16.02;;;8.20;;
35239;SDS011;21376;50.954;4.716;2024-02-21T17:28:23;17.92;;;7.97;;
35239;SDS011;21376;50.954;4.716;2024-02-21T17:30:52;15.57;;;8.40;;
35239;SDS011;21376;50.954;4.716;2024-02-21T17:33:21;16.85;;;8.85;;
35239;SDS011;21376;50.954;4.716;2024-02-21T17:35:50;14.32;;;8.65;;
35239;SDS011;21376;50.954;4.716;2024-02-21T17:38:26;15.40;;;8.15;;
35239;SDS011;21376;50.954;4.716;2024-02-21T17:40:53;13.50;;;7.88;;
35239;SDS011;21376;50.954;4.716;2024-02-21T17:43:22;12.05;;;8.15;;
35239;SDS011;21376;50.954;4.716;2024-02-21T17:45:51;12.68;;;8.60;;
35239;SDS011;21376;50.954;4.716;2024-02-21T17:50:52;13.85;;;6.50;;
35239;SDS011;21376;50.954;4.716;2024-02-21T17:53:21;11.57;;;7.45;;
35239;SDS011;21376;50.954;4.716;2024-02-21T17:55:48;11.80;;;8.07;;
35239;SDS011;21376;50.954;4.716;2024-02-21T17:58:17;15.70;;;7.97;;
35239;SDS011;21376;50.954;4.716;2024-02-21T18:00:44;13.13;;;6.28;;
35239;SDS011;21376;50.954;4.716;2024-02-21T18:06:12;7.40;;;5.53;;
35239;SDS011;21376;50.954;4.716;2024-02-21T18:08:42;11.40;;;7.07;;
35239;SDS011;21376;50.954;4.716;2024-02-21T18:14:20;14.48;;;7.03;;
35239;SDS011;21376;50.954;4.716;2024-02-21T18:16:49;9.18;;;6.38;;
35239;SDS011;21376;50.954;4.716;2024-02-21T18:19:18;11.10;;;5.88;;
35239;SDS011;21376;50.954;4.716;2024-02-21T18:21:45;10.98;;;6.85;;
35239;SDS011;21376;50.954;4.716;2024-02-21T18:24:11;9.32;;;6.22;;
35239;SDS011;21376;50.954;4.716;2024-02-21T18:26:40;6.55;;;4.93;;
35239;SDS011;21376;50.954;4.716;2024-02-21T18:34:05;10.82;;;5.88;;
35239;SDS011;21376;50.954;4.716;2024-02-21T18:36:34;9.10;;;6.03;;
35239;SDS011;21376;50.954;4.716;2024-02-21T18:41:36;13.15;;;6.68;;
35239;SDS011;21376;50.954;4.716;2024-02-21T18:44:08;13.65;;;7.40;;
35239;SDS011;21376;50.954;4.716;2024-02-21T18:49:06;14.93;;;7.47;;
35239;SDS011;21376;50.954;4.716;2024-02-21T18:51:35;8.55;;;5.50;;
35239;SDS011;21376;50.954;4.716;2024-02-21T18:54:04;8.27;;;5.72;;
35239;SDS011;21376;50.954;4.716;2024-02-21T18:56:33;7.32;;;4.65;;
35239;SDS011;21376;50.954;4.716;2024-02-21T18:59:06;7.72;;;5.10;;
35239;SDS011;21376;50.954;4.716;2024-02-21T19:01:35;9.02;;;5.45;;
35239;SDS011;21376;50.954;4.716;2024-02-21T19:04:07;10.07;;;6.70;;
35239;SDS011;21376;50.954;4.716;2024-02-21T19:06:36;7.50;;;4.85;;
35239;SDS011;21376;50.954;4.716;2024-02-21T19:09:03;8.15;;;4.95;;
35239;SDS011;21376;50.954;4.716;2024-02-21T19:11:32;7.03;;;4.63;;
35239;SDS011;21376;50.954;4.716;2024-02-21T19:26:08;6.85;;;5.13;;
35239;SDS011;21376;50.954;4.716;2024-02-21T19:31:25;8.85;;;5.10;;
35239;SDS011;21376;50.954;4.716;2024-02-21T19:33:52;9.63;;;5.00;;
35239;SDS011;21376;50.954;4.716;2024-02-21T19:36:19;7.03;;;5.15;;
35239;SDS011;21376;50.954;4.716;2024-02-21T19:38:47;7.55;;;5.50;;
35239;SDS011;21376;50.954;4.716;2024-02-21T19:41:17;7.85;;;5.15;;
35239;SDS011;21376;50.954;4.716;2024-02-21T19:43:46;7.68;;;4.95;;
35239;SDS011;21376;50.954;4.716;2024-02-21T19:48:44;7.47;;;4.88;;
35239;SDS011;21376;50.954;4.716;2024-02-21T19:51:13;4.13;;;3.72;;
35239;SDS011;21376;50.954;4.716;2024-02-21T19:56:20;6.18;;;4.32;;
35239;SDS011;21376;50.954;4.716;2024-02-21T19:58:49;4.72;;;3.83;;
35239;SDS011;21376;50.954;4.716;2024-02-21T20:01:17;5.38;;;4.25;;
35239;SDS011;21376;50.954;4.716;2024-02-21T20:03:47;5.95;;;4.40;;
35239;SDS011;21376;50.954;4.716;2024-02-21T20:06:24;6.97;;;5.00;;
35239;SDS011;21376;50.954;4.716;2024-02-21T20:11:29;24.85;;;9.50;;
35239;SDS011;21376;50.954;4.716;2024-02-21T20:13:58;18.90;;;9.32;;
35239;SDS011;21376;50.954;4.716;2024-02-21T20:16:30;4.95;;;3.70;;
35239;SDS011;21376;50.954;4.716;2024-02-21T20:21:25;5.28;;;3.03;;
35239;SDS011;21376;50.954;4.716;2024-02-21T20:27:00;5.07;;;3.30;;
35239;SDS011;21376;50.954;4.716;2024-02-21T20:34:56;5.45;;;2.58;;
35239;SDS011;21376;50.954;4.716;2024-02-21T20:37:25;3.63;;;2.60;;
35239;SDS011;21376;50.954;4.716;2024-02-21T20:39:52;3.80;;;2.58;;
35239;SDS011;21376;50.954;4.716;2024-02-21T20:42:21;3.38;;;2.85;;
35239;SDS011;21376;50.954;4.716;2024-02-21T20:44:51;2.72;;;2.53;;
35239;SDS011;21376;50.954;4.716;2024-02-21T20:47:21;3.65;;;2.83;;
35239;SDS011;21376;50.954;4.716;2024-02-21T20:49:48;3.92;;;2.45;;
35239;SDS011;21376;50.954;4.716;2024-02-21T20:52:25;5.35;;;3.80;;
35239;SDS011;21376;50.954;4.716;2024-02-21T20:57:23;6.78;;;3.70;;
35239;SDS011;21376;50.954;4.716;2024-02-21T20:59:49;8.57;;;4.57;;
35239;SDS011;21376;50.954;4.716;2024-02-21T21:02:16;10.63;;;5.07;;
35239;SDS011;21376;50.954;4.716;2024-02-21T21:04:45;14.20;;;4.60;;
35239;SDS011;21376;50.954;4.716;2024-02-21T21:09:41;8.50;;;4.05;;
35239;SDS011;21376;50.954;4.716;2024-02-21T21:12:07;20.38;;;6.07;;
35239;SDS011;21376;50.954;4.716;2024-02-21T21:14:36;5.30;;;2.65;;
35239;SDS011;21376;50.954;4.716;2024-02-21T21:17:04;11.90;;;5.95;;
35239;SDS011;21376;50.954;4.716;2024-02-21T21:24:34;3.65;;;3.17;;
35239;SDS011;21376;50.954;4.716;2024-02-21T21:27:02;4.30;;;3.47;;
35239;SDS011;21376;50.954;4.716;2024-02-21T21:29:31;3.88;;;3.05;;
35239;SDS011;21376;50.954;4.716;2024-02-21T21:32:14;2.65;;;2.40;;
35239;SDS011;21376;50.954;4.716;2024-02-21T21:34:43;3.60;;;2.20;;
35239;SDS011;21376;50.954;4.716;2024-02-21T21:37:13;2.72;;;2.08;;
35239;SDS011;21376;50.954;4.716;2024-02-21T21:42:23;4.45;;;2.33;;
35239;SDS011;21376;50.954;4.716;2024-02-21T21:44:52;3.38;;;2.60;;
35239;SDS011;21376;50.954;4.716;2024-02-21T21:47:22;3.92;;;3.17;;
35239;SDS011;21376;50.954;4.716;2024-02-21T21:50:04;2.80;;;2.30;;
35239;SDS011;21376;50.954;4.716;2024-02-21T21:52:34;4.88;;;2.30;;
35239;SDS011;21376;50.954;4.716;2024-02-21T21:55:01;2.90;;;2.40;;
35239;SDS011;21376;50.954;4.716;2024-02-21T21:57:30;3.60;;;2.63;;
35239;SDS011;21376;50.954;4.716;2024-02-21T21:59:59;3.10;;;2.30;;
35239;SDS011;21376;50.954;4.716;2024-02-21T22:02:29;3.88;;;3.08;;
35239;SDS011;21376;50.954;4.716;2024-02-21T22:04:58;3.58;;;2.80;;